To NAV CANADA Home Page Login to a new session Search on AWWS site Disclaimer Vers la page française équivalente Tips FAQ What's new on the site To the Forecasts and Observations / NOTAM section To "File a Flight Plan" website Publications and other links Update of the User's profile FIC Telephone Numbers My Weather Data Folder Route Weather Data Regional Weather Data Local Weather Data To the Forecasts and Observations / NOTAM section
Request Generated 04/24/2019 at 16:12:52 UTC . Weather information available at that time is displayed.

METAR/TAF

NIPAWIN/SK    (show WxCam)

METAR CYBU 241600Z AUTO 28014G22KT 9SM CLR 13/M04 A2973 RMK SLP080 DENSITY ALT 1400FT=
METAR CYBU 241500Z AUTO 28013KT 9SM CLR 11/M00 A2974 RMK SLP082=
METAR CYBU 241400Z AUTO 27013G18KT 9SM CLR 09/01 A2974 RMK SLP081=

CYBU - No TAF is issued for this station

Your time UTC time
Weather data provided by Environment Canada and NAV CANADA